Terminal Aerodrome Forecast
Issued by NWS

Home | Current Version | Previous Version | Graphics & Text | Print | Product List | Glossary On
Versions: 1 2 3 4 5 6 7 8 9 10 11 12 13 14 15 16 17 18 19
000
FTUS41 KCLE 210500
TAFFDY
TAF
KFDY 210540Z 2106/2206 22008KT P6SM SCT025 BKN045
      TEMPO 2106/2110 4SM -TSRA BR BKN025CB
     FM211000 24008KT P6SM SCT006 OVC015
      TEMPO 2110/2114 BKN006
     FM211500 28012G20KT P6SM BKN025
     FM212100 30015G22KT P6SM VCSH BKN025
     FM220100 33010KT P6SM BKN035=

USA.gov is the U.S. government's official web portal to all federal, state and local government web resources and services.